LUG weather

Lugano Airport
Lugano, Canton of Ticino, Switzerland

Public forecast

Using degrees Celsius for public forecast. Weather courtesy of forecast.io.

Current aviation weather report (METAR) for Lugano Airport

Retrieved 2020/08/04 02:20 UTC (17 minutes ago):

LSZA 040220Z AUTO VRB01KT 9999 FEW090 BKN100 16/14 Q1005

Closest aviation forecast (TAF) to Lugano Airport

Closest forecast is Malpensa International Airport, 23.7 nm (43.9 km) SSW. Retrieved 2020-08-04 00:00 UTC (3 hours ago):

TAF LIMC 032300Z 0400/0506 VRB05KT 9999 BKN040 TEMPO 0400/0406 RA